Layfield, Pennsylvania
Current Conditions -  °F | °C
As of 1:54 AM on Thursday 27 Nov 2014 (Local Time) from KPTW Reporting Station
Overcast Overcast  
Wind Chill: 29°   Ceiling: 5000
Heat Index: 33°   Visibility: 10mi
Dew Point: 30°   Wind: 5mph
Humidity: 89%   Direction: 290°WNW
Pressure: 29.95"   Gusts: NA
Location:  40.3096°N, 75.5833°W
Report Text: KPTW 270654Z AUTO 29004KT 10SM FEW040 BKN050 OVC070 01/M01 A2995 RMK AO2 SLP142 T00061011
Loading
Personal Weather Stations






























Interactive Weather Map New forecast layout! Learn more

10-Day Weather Forecast

Advertisements
Track Severe Weather on mobile